sensor_id;sensor_type;location;lat;lon;timestamp;P1;durP1;ratioP1;P2;durP2;ratioP2
49722;SDS011;43484;43.608;1.458;2023-04-07T00:01:16;8.02;;;3.33;;
49722;SDS011;43484;43.608;1.458;2023-04-07T00:03:43;9.52;;;3.53;;
49722;SDS011;43484;43.608;1.458;2023-04-07T00:06:10;5.43;;;2.67;;
49722;SDS011;43484;43.608;1.458;2023-04-07T00:08:37;6.18;;;2.22;;
49722;SDS011;43484;43.608;1.458;2023-04-07T00:11:04;7.45;;;2.28;;
49722;SDS011;43484;43.608;1.458;2023-04-07T00:13:31;5.78;;;2.05;;
49722;SDS011;43484;43.608;1.458;2023-04-07T00:15:57;7.07;;;2.90;;
49722;SDS011;43484;43.608;1.458;2023-04-07T00:18:24;9.20;;;2.42;;
49722;SDS011;43484;43.608;1.458;2023-04-07T00:20:50;4.95;;;1.95;;
49722;SDS011;43484;43.608;1.458;2023-04-07T00:23:17;3.22;;;1.60;;
49722;SDS011;43484;43.608;1.458;2023-04-07T00:25:46;4.07;;;1.83;;
49722;SDS011;43484;43.608;1.458;2023-04-07T00:28:13;4.47;;;1.95;;
49722;SDS011;43484;43.608;1.458;2023-04-07T00:30:40;5.88;;;1.80;;
49722;SDS011;43484;43.608;1.458;2023-04-07T00:33:07;5.05;;;1.48;;
49722;SDS011;43484;43.608;1.458;2023-04-07T00:35:35;3.78;;;1.58;;
49722;SDS011;43484;43.608;1.458;2023-04-07T00:38:01;5.85;;;1.50;;
49722;SDS011;43484;43.608;1.458;2023-04-07T00:40:28;4.28;;;1.63;;
49722;SDS011;43484;43.608;1.458;2023-04-07T00:42:55;5.25;;;2.42;;
49722;SDS011;43484;43.608;1.458;2023-04-07T00:45:22;4.93;;;1.73;;
49722;SDS011;43484;43.608;1.458;2023-04-07T00:47:49;3.33;;;1.70;;
49722;SDS011;43484;43.608;1.458;2023-04-07T00:50:16;8.63;;;1.80;;
49722;SDS011;43484;43.608;1.458;2023-04-07T00:52:44;3.67;;;1.95;;
49722;SDS011;43484;43.608;1.458;2023-04-07T00:55:11;3.72;;;1.58;;
49722;SDS011;43484;43.608;1.458;2023-04-07T00:57:38;6.15;;;1.75;;
49722;SDS011;43484;43.608;1.458;2023-04-07T01:00:05;5.28;;;1.63;;
49722;SDS011;43484;43.608;1.458;2023-04-07T01:05:21;3.08;;;1.60;;
49722;SDS011;43484;43.608;1.458;2023-04-07T01:08:00;3.58;;;1.23;;
49722;SDS011;43484;43.608;1.458;2023-04-07T01:13:21;2.55;;;1.45;;
49722;SDS011;43484;43.608;1.458;2023-04-07T01:15:53;3.35;;;1.38;;
49722;SDS011;43484;43.608;1.458;2023-04-07T01:18:25;5.15;;;2.22;;
49722;SDS011;43484;43.608;1.458;2023-04-07T01:20:59;7.90;;;2.13;;
49722;SDS011;43484;43.608;1.458;2023-04-07T01:26:29;2.83;;;1.50;;
49722;SDS011;43484;43.608;1.458;2023-04-07T01:31:38;4.88;;;1.88;;
49722;SDS011;43484;43.608;1.458;2023-04-07T01:34:09;3.45;;;1.58;;
49722;SDS011;43484;43.608;1.458;2023-04-07T01:36:37;2.85;;;1.60;;
49722;SDS011;43484;43.608;1.458;2023-04-07T01:39:05;2.55;;;1.50;;
49722;SDS011;43484;43.608;1.458;2023-04-07T01:41:33;3.90;;;1.60;;
49722;SDS011;43484;43.608;1.458;2023-04-07T01:44:01;5.20;;;1.88;;
49722;SDS011;43484;43.608;1.458;2023-04-07T01:46:29;4.78;;;1.38;;
49722;SDS011;43484;43.608;1.458;2023-04-07T01:48:56;3.60;;;1.52;;
49722;SDS011;43484;43.608;1.458;2023-04-07T01:51:24;3.55;;;1.55;;
49722;SDS011;43484;43.608;1.458;2023-04-07T01:53:52;3.17;;;1.75;;
49722;SDS011;43484;43.608;1.458;2023-04-07T01:56:20;3.50;;;1.77;;
49722;SDS011;43484;43.608;1.458;2023-04-07T01:58:47;5.63;;;1.98;;
49722;SDS011;43484;43.608;1.458;2023-04-07T02:01:14;4.10;;;1.85;;
49722;SDS011;43484;43.608;1.458;2023-04-07T02:04:01;5.10;;;1.70;;
49722;SDS011;43484;43.608;1.458;2023-04-07T02:06:34;3.10;;;1.85;;
49722;SDS011;43484;43.608;1.458;2023-04-07T02:09:07;3.63;;;1.40;;
49722;SDS011;43484;43.608;1.458;2023-04-07T02:11:36;3.80;;;1.70;;
49722;SDS011;43484;43.608;1.458;2023-04-07T02:14:05;3.03;;;1.40;;
49722;SDS011;43484;43.608;1.458;2023-04-07T02:16:34;2.97;;;1.00;;
49722;SDS011;43484;43.608;1.458;2023-04-07T02:19:02;2.63;;;1.38;;
49722;SDS011;43484;43.608;1.458;2023-04-07T02:21:29;6.03;;;1.83;;
49722;SDS011;43484;43.608;1.458;2023-04-07T02:24:00;3.95;;;1.30;;
49722;SDS011;43484;43.608;1.458;2023-04-07T02:26:27;3.78;;;1.73;;
49722;SDS011;43484;43.608;1.458;2023-04-07T02:29:01;4.70;;;1.45;;
49722;SDS011;43484;43.608;1.458;2023-04-07T02:31:28;3.70;;;1.30;;
49722;SDS011;43484;43.608;1.458;2023-04-07T02:33:56;5.78;;;1.65;;
49722;SDS011;43484;43.608;1.458;2023-04-07T02:36:22;4.70;;;1.40;;
49722;SDS011;43484;43.608;1.458;2023-04-07T02:38:49;7.65;;;1.67;;
49722;SDS011;43484;43.608;1.458;2023-04-07T02:41:16;2.88;;;1.42;;
49722;SDS011;43484;43.608;1.458;2023-04-07T02:43:42;3.97;;;1.58;;
49722;SDS011;43484;43.608;1.458;2023-04-07T02:46:09;2.55;;;1.10;;
49722;SDS011;43484;43.608;1.458;2023-04-07T02:48:35;3.88;;;1.25;;
49722;SDS011;43484;43.608;1.458;2023-04-07T02:51:02;3.63;;;1.75;;
49722;SDS011;43484;43.608;1.458;2023-04-07T02:53:29;4.25;;;1.75;;
49722;SDS011;43484;43.608;1.458;2023-04-07T02:55:55;4.78;;;2.00;;
49722;SDS011;43484;43.608;1.458;2023-04-07T02:58:22;4.60;;;1.67;;
49722;SDS011;43484;43.608;1.458;2023-04-07T03:00:49;7.63;;;1.73;;
49722;SDS011;43484;43.608;1.458;2023-04-07T03:03:16;3.88;;;1.60;;
49722;SDS011;43484;43.608;1.458;2023-04-07T03:05:43;2.53;;;1.80;;
49722;SDS011;43484;43.608;1.458;2023-04-07T03:08:09;4.07;;;1.83;;
49722;SDS011;43484;43.608;1.458;2023-04-07T03:10:38;11.70;;;2.83;;
49722;SDS011;43484;43.608;1.458;2023-04-07T03:13:05;4.80;;;2.10;;
49722;SDS011;43484;43.608;1.458;2023-04-07T03:15:33;5.18;;;1.65;;
49722;SDS011;43484;43.608;1.458;2023-04-07T03:18:00;5.60;;;2.13;;
49722;SDS011;43484;43.608;1.458;2023-04-07T03:20:26;6.40;;;2.15;;
49722;SDS011;43484;43.608;1.458;2023-04-07T03:22:53;6.07;;;2.10;;
49722;SDS011;43484;43.608;1.458;2023-04-07T03:25:19;9.23;;;1.73;;
49722;SDS011;43484;43.608;1.458;2023-04-07T03:27:46;4.20;;;1.65;;
49722;SDS011;43484;43.608;1.458;2023-04-07T03:30:13;5.50;;;2.22;;
49722;SDS011;43484;43.608;1.458;2023-04-07T03:32:40;5.63;;;1.45;;
49722;SDS011;43484;43.608;1.458;2023-04-07T03:35:06;3.53;;;1.60;;
49722;SDS011;43484;43.608;1.458;2023-04-07T03:37:33;3.72;;;1.70;;
49722;SDS011;43484;43.608;1.458;2023-04-07T03:40:00;5.65;;;1.98;;
49722;SDS011;43484;43.608;1.458;2023-04-07T03:42:27;7.45;;;1.95;;
49722;SDS011;43484;43.608;1.458;2023-04-07T03:44:53;7.57;;;2.35;;
49722;SDS011;43484;43.608;1.458;2023-04-07T03:47:20;6.47;;;1.83;;
49722;SDS011;43484;43.608;1.458;2023-04-07T03:49:47;2.75;;;1.55;;
49722;SDS011;43484;43.608;1.458;2023-04-07T03:52:14;3.17;;;1.38;;
49722;SDS011;43484;43.608;1.458;2023-04-07T03:54:40;5.40;;;1.50;;
49722;SDS011;43484;43.608;1.458;2023-04-07T03:57:07;3.45;;;1.38;;
49722;SDS011;43484;43.608;1.458;2023-04-07T03:59:34;5.22;;;1.88;;
49722;SDS011;43484;43.608;1.458;2023-04-07T04:02:01;2.92;;;1.60;;
49722;SDS011;43484;43.608;1.458;2023-04-07T04:04:28;3.28;;;1.92;;
49722;SDS011;43484;43.608;1.458;2023-04-07T04:06:54;2.42;;;1.50;;
49722;SDS011;43484;43.608;1.458;2023-04-07T04:09:21;6.05;;;1.73;;
49722;SDS011;43484;43.608;1.458;2023-04-07T04:11:48;7.40;;;1.73;;
49722;SDS011;43484;43.608;1.458;2023-04-07T04:14:14;2.47;;;1.50;;
49722;SDS011;43484;43.608;1.458;2023-04-07T04:16:42;5.55;;;1.80;;
49722;SDS011;43484;43.608;1.458;2023-04-07T04:19:08;4.65;;;1.67;;
49722;SDS011;43484;43.608;1.458;2023-04-07T04:21:35;5.25;;;1.73;;
49722;SDS011;43484;43.608;1.458;2023-04-07T04:24:02;3.10;;;1.67;;
49722;SDS011;43484;43.608;1.458;2023-04-07T04:26:29;15.20;;;3.05;;
49722;SDS011;43484;43.608;1.458;2023-04-07T04:28:56;3.80;;;1.92;;
49722;SDS011;43484;43.608;1.458;2023-04-07T04:31:22;5.85;;;1.73;;
49722;SDS011;43484;43.608;1.458;2023-04-07T04:33:49;7.85;;;1.70;;
49722;SDS011;43484;43.608;1.458;2023-04-07T04:36:16;2.10;;;1.40;;
49722;SDS011;43484;43.608;1.458;2023-04-07T04:38:42;4.75;;;2.10;;
49722;SDS011;43484;43.608;1.458;2023-04-07T04:41:09;4.95;;;1.98;;
49722;SDS011;43484;43.608;1.458;2023-04-07T04:43:35;3.05;;;1.63;;
49722;SDS011;43484;43.608;1.458;2023-04-07T04:46:02;4.35;;;1.80;;
49722;SDS011;43484;43.608;1.458;2023-04-07T04:48:29;2.47;;;1.23;;
49722;SDS011;43484;43.608;1.458;2023-04-07T04:50:55;7.45;;;1.70;;
49722;SDS011;43484;43.608;1.458;2023-04-07T04:53:22;9.93;;;1.80;;
49722;SDS011;43484;43.608;1.458;2023-04-07T04:55:49;5.97;;;1.60;;
49722;SDS011;43484;43.608;1.458;2023-04-07T04:58:19;4.75;;;1.85;;
49722;SDS011;43484;43.608;1.458;2023-04-07T05:00:45;4.32;;;1.65;;
49722;SDS011;43484;43.608;1.458;2023-04-07T05:03:12;5.90;;;1.95;;
49722;SDS011;43484;43.608;1.458;2023-04-07T05:05:39;3.35;;;1.70;;
49722;SDS011;43484;43.608;1.458;2023-04-07T05:08:07;3.20;;;1.77;;
49722;SDS011;43484;43.608;1.458;2023-04-07T05:10:39;8.25;;;1.83;;
49722;SDS011;43484;43.608;1.458;2023-04-07T05:13:06;8.52;;;1.83;;
49722;SDS011;43484;43.608;1.458;2023-04-07T05:15:32;4.45;;;1.90;;
49722;SDS011;43484;43.608;1.458;2023-04-07T05:17:59;5.25;;;1.90;;
49722;SDS011;43484;43.608;1.458;2023-04-07T05:20:26;3.95;;;2.20;;
49722;SDS011;43484;43.608;1.458;2023-04-07T05:22:52;4.97;;;2.08;;
49722;SDS011;43484;43.608;1.458;2023-04-07T05:25:19;9.07;;;2.38;;
49722;SDS011;43484;43.608;1.458;2023-04-07T05:27:46;6.95;;;3.03;;
49722;SDS011;43484;43.608;1.458;2023-04-07T05:30:12;8.77;;;2.72;;
49722;SDS011;43484;43.608;1.458;2023-04-07T05:32:39;5.47;;;2.20;;
49722;SDS011;43484;43.608;1.458;2023-04-07T05:35:06;6.53;;;2.38;;
49722;SDS011;43484;43.608;1.458;2023-04-07T05:37:33;7.93;;;2.10;;
49722;SDS011;43484;43.608;1.458;2023-04-07T05:39:59;5.55;;;2.70;;
49722;SDS011;43484;43.608;1.458;2023-04-07T05:42:26;6.88;;;2.67;;
49722;SDS011;43484;43.608;1.458;2023-04-07T05:44:53;8.40;;;2.88;;
49722;SDS011;43484;43.608;1.458;2023-04-07T05:47:19;10.52;;;3.28;;
49722;SDS011;43484;43.608;1.458;2023-04-07T05:49:46;4.78;;;2.08;;
49722;SDS011;43484;43.608;1.458;2023-04-07T05:52:13;10.23;;;2.88;;
49722;SDS011;43484;43.608;1.458;2023-04-07T05:54:39;9.80;;;2.42;;
49722;SDS011;43484;43.608;1.458;2023-04-07T05:57:06;10.55;;;2.50;;
49722;SDS011;43484;43.608;1.458;2023-04-07T05:59:34;6.68;;;2.58;;
49722;SDS011;43484;43.608;1.458;2023-04-07T06:02:02;10.88;;;3.53;;
49722;SDS011;43484;43.608;1.458;2023-04-07T06:04:29;10.05;;;2.60;;
49722;SDS011;43484;43.608;1.458;2023-04-07T06:06:56;9.45;;;3.25;;
49722;SDS011;43484;43.608;1.458;2023-04-07T06:09:23;7.85;;;2.88;;
49722;SDS011;43484;43.608;1.458;2023-04-07T06:11:50;11.27;;;2.90;;
49722;SDS011;43484;43.608;1.458;2023-04-07T06:14:16;7.88;;;2.85;;
49722;SDS011;43484;43.608;1.458;2023-04-07T06:16:43;15.82;;;3.75;;
49722;SDS011;43484;43.608;1.458;2023-04-07T06:19:10;11.50;;;3.13;;
49722;SDS011;43484;43.608;1.458;2023-04-07T06:21:37;10.20;;;2.88;;
49722;SDS011;43484;43.608;1.458;2023-04-07T06:24:05;10.52;;;3.22;;
49722;SDS011;43484;43.608;1.458;2023-04-07T06:26:32;10.95;;;3.35;;
49722;SDS011;43484;43.608;1.458;2023-04-07T06:28:59;12.85;;;3.10;;
49722;SDS011;43484;43.608;1.458;2023-04-07T06:31:25;5.15;;;3.17;;
49722;SDS011;43484;43.608;1.458;2023-04-07T06:33:52;17.60;;;4.18;;
49722;SDS011;43484;43.608;1.458;2023-04-07T06:36:19;13.27;;;3.78;;
49722;SDS011;43484;43.608;1.458;2023-04-07T06:38:46;12.45;;;3.33;;
49722;SDS011;43484;43.608;1.458;2023-04-07T06:41:13;11.95;;;3.28;;
49722;SDS011;43484;43.608;1.458;2023-04-07T06:43:42;15.13;;;3.38;;
49722;SDS011;43484;43.608;1.458;2023-04-07T06:46:10;11.02;;;3.58;;
49722;SDS011;43484;43.608;1.458;2023-04-07T06:48:37;15.23;;;4.18;;
49722;SDS011;43484;43.608;1.458;2023-04-07T06:51:03;11.57;;;3.75;;
49722;SDS011;43484;43.608;1.458;2023-04-07T06:53:30;14.68;;;3.25;;
49722;SDS011;43484;43.608;1.458;2023-04-07T06:56:07;15.55;;;3.10;;
49722;SDS011;43484;43.608;1.458;2023-04-07T06:58:35;11.00;;;3.40;;
49722;SDS011;43484;43.608;1.458;2023-04-07T07:01:02;14.63;;;3.60;;
49722;SDS011;43484;43.608;1.458;2023-04-07T07:03:30;14.68;;;3.50;;
49722;SDS011;43484;43.608;1.458;2023-04-07T07:05:58;14.48;;;3.25;;
49722;SDS011;43484;43.608;1.458;2023-04-07T07:08:26;8.60;;;3.13;;
49722;SDS011;43484;43.608;1.458;2023-04-07T07:10:54;10.23;;;3.83;;
49722;SDS011;43484;43.608;1.458;2023-04-07T07:13:22;14.48;;;3.35;;
49722;SDS011;43484;43.608;1.458;2023-04-07T07:15:50;9.77;;;4.22;;
49722;SDS011;43484;43.608;1.458;2023-04-07T07:18:17;13.85;;;3.28;;
49722;SDS011;43484;43.608;1.458;2023-04-07T07:20:44;11.77;;;2.95;;
49722;SDS011;43484;43.608;1.458;2023-04-07T07:23:11;10.52;;;3.28;;
49722;SDS011;43484;43.608;1.458;2023-04-07T07:25:38;12.43;;;4.18;;
49722;SDS011;43484;43.608;1.458;2023-04-07T07:28:04;19.85;;;4.03;;
49722;SDS011;43484;43.608;1.458;2023-04-07T07:30:31;14.20;;;4.18;;
49722;SDS011;43484;43.608;1.458;2023-04-07T07:32:58;16.38;;;3.95;;
49722;SDS011;43484;43.608;1.458;2023-04-07T07:35:24;14.45;;;4.30;;
49722;SDS011;43484;43.608;1.458;2023-04-07T07:37:51;11.57;;;3.53;;
49722;SDS011;43484;43.608;1.458;2023-04-07T07:40:18;11.07;;;4.18;;
49722;SDS011;43484;43.608;1.458;2023-04-07T07:42:45;13.65;;;3.45;;
49722;SDS011;43484;43.608;1.458;2023-04-07T07:45:12;14.48;;;4.35;;
49722;SDS011;43484;43.608;1.458;2023-04-07T07:47:39;5.05;;;3.10;;
49722;SDS011;43484;43.608;1.458;2023-04-07T07:50:09;12.80;;;2.67;;
49722;SDS011;43484;43.608;1.458;2023-04-07T07:52:36;11.80;;;3.65;;
49722;SDS011;43484;43.608;1.458;2023-04-07T07:55:03;11.13;;;3.70;;
49722;SDS011;43484;43.608;1.458;2023-04-07T07:57:30;9.50;;;3.28;;
49722;SDS011;43484;43.608;1.458;2023-04-07T07:59:57;8.57;;;3.42;;
49722;SDS011;43484;43.608;1.458;2023-04-07T08:02:23;8.55;;;2.72;;
49722;SDS011;43484;43.608;1.458;2023-04-07T08:04:56;12.48;;;3.25;;
49722;SDS011;43484;43.608;1.458;2023-04-07T08:07:23;26.30;;;3.30;;
49722;SDS011;43484;43.608;1.458;2023-04-07T08:09:50;10.30;;;3.67;;
49722;SDS011;43484;43.608;1.458;2023-04-07T08:12:16;6.90;;;3.65;;
49722;SDS011;43484;43.608;1.458;2023-04-07T08:14:43;9.18;;;3.85;;
49722;SDS011;43484;43.608;1.458;2023-04-07T08:17:10;10.00;;;3.53;;
49722;SDS011;43484;43.608;1.458;2023-04-07T08:19:37;9.05;;;3.42;;
49722;SDS011;43484;43.608;1.458;2023-04-07T08:22:04;8.75;;;3.58;;
49722;SDS011;43484;43.608;1.458;2023-04-07T08:24:31;11.00;;;4.53;;
49722;SDS011;43484;43.608;1.458;2023-04-07T08:26:58;7.70;;;3.28;;
49722;SDS011;43484;43.608;1.458;2023-04-07T08:29:24;8.98;;;3.20;;
49722;SDS011;43484;43.608;1.458;2023-04-07T08:31:51;9.80;;;3.05;;
49722;SDS011;43484;43.608;1.458;2023-04-07T08:34:18;9.20;;;2.70;;
49722;SDS011;43484;43.608;1.458;2023-04-07T08:36:46;10.68;;;2.90;;
49722;SDS011;43484;43.608;1.458;2023-04-07T08:39:13;9.43;;;2.58;;
49722;SDS011;43484;43.608;1.458;2023-04-07T08:41:40;7.18;;;3.20;;
49722;SDS011;43484;43.608;1.458;2023-04-07T08:44:07;5.28;;;2.20;;
49722;SDS011;43484;43.608;1.458;2023-04-07T08:46:38;9.07;;;3.00;;
49722;SDS011;43484;43.608;1.458;2023-04-07T08:49:07;5.82;;;2.75;;
49722;SDS011;43484;43.608;1.458;2023-04-07T08:51:46;11.00;;;2.38;;
49722;SDS011;43484;43.608;1.458;2023-04-07T08:54:14;5.68;;;2.50;;
49722;SDS011;43484;43.608;1.458;2023-04-07T08:56:44;9.10;;;2.55;;
49722;SDS011;43484;43.608;1.458;2023-04-07T08:59:12;6.88;;;2.47;;
49722;SDS011;43484;43.608;1.458;2023-04-07T09:01:39;6.22;;;2.45;;
49722;SDS011;43484;43.608;1.458;2023-04-07T09:04:08;3.35;;;2.20;;
49722;SDS011;43484;43.608;1.458;2023-04-07T09:06:35;8.48;;;2.38;;
49722;SDS011;43484;43.608;1.458;2023-04-07T09:09:03;9.25;;;2.40;;
49722;SDS011;43484;43.608;1.458;2023-04-07T09:11:34;7.38;;;2.80;;
49722;SDS011;43484;43.608;1.458;2023-04-07T09:14:08;5.80;;;2.40;;
49722;SDS011;43484;43.608;1.458;2023-04-07T09:16:36;5.75;;;2.60;;
49722;SDS011;43484;43.608;1.458;2023-04-07T09:19:03;11.25;;;3.05;;
49722;SDS011;43484;43.608;1.458;2023-04-07T09:21:48;6.55;;;2.40;;
49722;SDS011;43484;43.608;1.458;2023-04-07T09:27:09;6.65;;;2.78;;
49722;SDS011;43484;43.608;1.458;2023-04-07T09:29:41;7.53;;;2.15;;
49722;SDS011;43484;43.608;1.458;2023-04-07T09:32:09;8.07;;;2.20;;
49722;SDS011;43484;43.608;1.458;2023-04-07T09:34:37;6.45;;;2.53;;
49722;SDS011;43484;43.608;1.458;2023-04-07T09:37:06;9.40;;;2.72;;
49722;SDS011;43484;43.608;1.458;2023-04-07T09:39:50;6.55;;;2.55;;
49722;SDS011;43484;43.608;1.458;2023-04-07T09:42:19;8.82;;;2.47;;
49722;SDS011;43484;43.608;1.458;2023-04-07T09:44:46;8.48;;;2.70;;
49722;SDS011;43484;43.608;1.458;2023-04-07T09:47:13;12.45;;;2.53;;
49722;SDS011;43484;43.608;1.458;2023-04-07T09:49:52;8.88;;;3.92;;
49722;SDS011;43484;43.608;1.458;2023-04-07T09:52:21;10.52;;;2.38;;
49722;SDS011;43484;43.608;1.458;2023-04-07T09:54:50;5.47;;;2.78;;
49722;SDS011;43484;43.608;1.458;2023-04-07T09:57:18;10.75;;;2.08;;
49722;SDS011;43484;43.608;1.458;2023-04-07T09:59:46;9.05;;;3.13;;
49722;SDS011;43484;43.608;1.458;2023-04-07T10:02:14;6.20;;;2.33;;
49722;SDS011;43484;43.608;1.458;2023-04-07T10:04:41;10.45;;;2.78;;
49722;SDS011;43484;43.608;1.458;2023-04-07T10:07:09;2.90;;;1.63;;
49722;SDS011;43484;43.608;1.458;2023-04-07T10:09:35;5.78;;;1.80;;
49722;SDS011;43484;43.608;1.458;2023-04-07T10:12:02;8.63;;;2.53;;
49722;SDS011;43484;43.608;1.458;2023-04-07T10:14:30;8.90;;;2.33;;
49722;SDS011;43484;43.608;1.458;2023-04-07T10:17:00;3.13;;;1.65;;
49722;SDS011;43484;43.608;1.458;2023-04-07T10:19:32;6.68;;;1.98;;
49722;SDS011;43484;43.608;1.458;2023-04-07T10:22:00;9.02;;;2.20;;
49722;SDS011;43484;43.608;1.458;2023-04-07T10:27:15;5.47;;;1.83;;
49722;SDS011;43484;43.608;1.458;2023-04-07T10:29:45;4.55;;;2.00;;
49722;SDS011;43484;43.608;1.458;2023-04-07T10:32:15;6.28;;;2.40;;
49722;SDS011;43484;43.608;1.458;2023-04-07T10:37:16;6.68;;;2.13;;
49722;SDS011;43484;43.608;1.458;2023-04-07T10:39:50;5.30;;;2.17;;
49722;SDS011;43484;43.608;1.458;2023-04-07T10:45:06;3.90;;;1.70;;
49722;SDS011;43484;43.608;1.458;2023-04-07T10:47:35;5.38;;;1.92;;
49722;SDS011;43484;43.608;1.458;2023-04-07T10:50:24;6.85;;;1.65;;
49722;SDS011;43484;43.608;1.458;2023-04-07T10:53:07;3.47;;;1.30;;
49722;SDS011;43484;43.608;1.458;2023-04-07T10:58:15;5.10;;;0.98;;
49722;SDS011;43484;43.608;1.458;2023-04-07T11:01:15;2.90;;;1.10;;
49722;SDS011;43484;43.608;1.458;2023-04-07T11:03:31;6.47;;;1.05;;
49722;SDS011;43484;43.608;1.458;2023-04-07T11:06:06;4.90;;;0.90;;
49722;SDS011;43484;43.608;1.458;2023-04-07T11:08:38;2.47;;;1.10;;
49722;SDS011;43484;43.608;1.458;2023-04-07T11:11:07;1.90;;;0.80;;
49722;SDS011;43484;43.608;1.458;2023-04-07T11:13:41;2.85;;;1.25;;
49722;SDS011;43484;43.608;1.458;2023-04-07T11:16:18;4.75;;;1.02;;
49722;SDS011;43484;43.608;1.458;2023-04-07T11:18:46;3.55;;;1.27;;
49722;SDS011;43484;43.608;1.458;2023-04-07T11:21:17;5.75;;;1.38;;
49722;SDS011;43484;43.608;1.458;2023-04-07T11:23:45;5.60;;;1.13;;
49722;SDS011;43484;43.608;1.458;2023-04-07T11:26:14;4.80;;;1.10;;
49722;SDS011;43484;43.608;1.458;2023-04-07T11:28:44;7.57;;;1.25;;
49722;SDS011;43484;43.608;1.458;2023-04-07T11:31:20;6.78;;;1.63;;
49722;SDS011;43484;43.608;1.458;2023-04-07T11:33:53;5.65;;;1.63;;
49722;SDS011;43484;43.608;1.458;2023-04-07T11:36:30;5.10;;;1.10;;
49722;SDS011;43484;43.608;1.458;2023-04-07T11:39:01;11.00;;;1.42;;
49722;SDS011;43484;43.608;1.458;2023-04-07T11:41:28;2.70;;;1.13;;
49722;SDS011;43484;43.608;1.458;2023-04-07T11:44:03;2.75;;;1.20;;
49722;SDS011;43484;43.608;1.458;2023-04-07T11:46:56;2.45;;;1.10;;
49722;SDS011;43484;43.608;1.458;2023-04-07T11:49:25;4.45;;;1.27;;
49722;SDS011;43484;43.608;1.458;2023-04-07T11:52:00;7.22;;;1.30;;
49722;SDS011;43484;43.608;1.458;2023-04-07T11:54:44;3.88;;;1.17;;
49722;SDS011;43484;43.608;1.458;2023-04-07T11:57:12;3.00;;;1.43;;
49722;SDS011;43484;43.608;1.458;2023-04-07T11:59:40;6.95;;;1.13;;
49722;SDS011;43484;43.608;1.458;2023-04-07T12:02:07;2.33;;;1.20;;
49722;SDS011;43484;43.608;1.458;2023-04-07T12:04:35;9.68;;;1.38;;
49722;SDS011;43484;43.608;1.458;2023-04-07T12:07:09;6.72;;;1.02;;
49722;SDS011;43484;43.608;1.458;2023-04-07T12:09:36;3.03;;;1.10;;
49722;SDS011;43484;43.608;1.458;2023-04-07T12:12:04;4.22;;;0.93;;
49722;SDS011;43484;43.608;1.458;2023-04-07T12:14:33;3.80;;;0.90;;
49722;SDS011;43484;43.608;1.458;2023-04-07T12:17:01;3.13;;;0.98;;
49722;SDS011;43484;43.608;1.458;2023-04-07T12:19:29;2.53;;;1.20;;
49722;SDS011;43484;43.608;1.458;2023-04-07T12:22:01;4.47;;;1.52;;
49722;SDS011;43484;43.608;1.458;2023-04-07T12:24:28;1.83;;;0.65;;
49722;SDS011;43484;43.608;1.458;2023-04-07T12:26:54;5.25;;;0.98;;
49722;SDS011;43484;43.608;1.458;2023-04-07T12:29:21;1.50;;;0.90;;
49722;SDS011;43484;43.608;1.458;2023-04-07T12:31:48;6.60;;;0.93;;
49722;SDS011;43484;43.608;1.458;2023-04-07T12:34:16;2.33;;;0.85;;
49722;SDS011;43484;43.608;1.458;2023-04-07T12:36:43;5.28;;;1.20;;
49722;SDS011;43484;43.608;1.458;2023-04-07T12:39:10;2.05;;;0.90;;
49722;SDS011;43484;43.608;1.458;2023-04-07T12:41:37;2.13;;;0.73;;
49722;SDS011;43484;43.608;1.458;2023-04-07T12:44:04;2.45;;;0.80;;
49722;SDS011;43484;43.608;1.458;2023-04-07T12:46:31;3.58;;;0.75;;
49722;SDS011;43484;43.608;1.458;2023-04-07T12:48:58;6.78;;;1.17;;
49722;SDS011;43484;43.608;1.458;2023-04-07T12:51:24;11.57;;;1.17;;
49722;SDS011;43484;43.608;1.458;2023-04-07T12:53:52;3.88;;;0.80;;
49722;SDS011;43484;43.608;1.458;2023-04-07T12:56:19;4.70;;;0.95;;
49722;SDS011;43484;43.608;1.458;2023-04-07T12:58:47;1.13;;;0.73;;
49722;SDS011;43484;43.608;1.458;2023-04-07T13:01:14;3.40;;;0.90;;
49722;SDS011;43484;43.608;1.458;2023-04-07T13:03:42;3.33;;;0.98;;
49722;SDS011;43484;43.608;1.458;2023-04-07T13:06:09;5.57;;;1.33;;
49722;SDS011;43484;43.608;1.458;2023-04-07T13:08:37;4.10;;;0.88;;
49722;SDS011;43484;43.608;1.458;2023-04-07T13:11:04;3.90;;;0.75;;
49722;SDS011;43484;43.608;1.458;2023-04-07T13:13:31;3.00;;;1.00;;
49722;SDS011;43484;43.608;1.458;2023-04-07T13:15:58;3.97;;;1.00;;
49722;SDS011;43484;43.608;1.458;2023-04-07T13:18:26;4.10;;;1.13;;
49722;SDS011;43484;43.608;1.458;2023-04-07T13:20:52;3.97;;;1.13;;
49722;SDS011;43484;43.608;1.458;2023-04-07T13:23:39;2.75;;;0.63;;
49722;SDS011;43484;43.608;1.458;2023-04-07T13:26:19;3.85;;;1.35;;
49722;SDS011;43484;43.608;1.458;2023-04-07T13:28:45;3.58;;;0.77;;
49722;SDS011;43484;43.608;1.458;2023-04-07T13:31:13;2.63;;;1.00;;
49722;SDS011;43484;43.608;1.458;2023-04-07T13:33:41;3.17;;;0.73;;
49722;SDS011;43484;43.608;1.458;2023-04-07T13:36:08;4.78;;;0.88;;
49722;SDS011;43484;43.608;1.458;2023-04-07T13:38:35;3.25;;;0.80;;
49722;SDS011;43484;43.608;1.458;2023-04-07T13:41:02;2.25;;;0.88;;
49722;SDS011;43484;43.608;1.458;2023-04-07T13:43:29;2.00;;;0.70;;
49722;SDS011;43484;43.608;1.458;2023-04-07T13:45:56;7.43;;;0.88;;
49722;SDS011;43484;43.608;1.458;2023-04-07T13:48:22;2.47;;;0.70;;
49722;SDS011;43484;43.608;1.458;2023-04-07T13:50:49;3.13;;;1.20;;
49722;SDS011;43484;43.608;1.458;2023-04-07T13:53:15;2.53;;;0.60;;
49722;SDS011;43484;43.608;1.458;2023-04-07T13:55:44;1.88;;;0.43;;
49722;SDS011;43484;43.608;1.458;2023-04-07T13:58:11;5.03;;;0.45;;
49722;SDS011;43484;43.608;1.458;2023-04-07T14:00:38;7.45;;;0.50;;
49722;SDS011;43484;43.608;1.458;2023-04-07T14:03:05;3.08;;;0.50;;
49722;SDS011;43484;43.608;1.458;2023-04-07T14:05:33;0.55;;;0.40;;
49722;SDS011;43484;43.608;1.458;2023-04-07T14:08:01;7.18;;;1.00;;
49722;SDS011;43484;43.608;1.458;2023-04-07T14:10:27;7.70;;;0.80;;
49722;SDS011;43484;43.608;1.458;2023-04-07T14:12:54;5.32;;;0.90;;
49722;SDS011;43484;43.608;1.458;2023-04-07T14:15:21;2.40;;;0.60;;
49722;SDS011;43484;43.608;1.458;2023-04-07T14:17:48;4.75;;;0.50;;
49722;SDS011;43484;43.608;1.458;2023-04-07T14:20:14;1.25;;;0.65;;
49722;SDS011;43484;43.608;1.458;2023-04-07T14:22:41;2.13;;;0.50;;
49722;SDS011;43484;43.608;1.458;2023-04-07T14:25:08;1.92;;;0.50;;
49722;SDS011;43484;43.608;1.458;2023-04-07T14:27:36;2.00;;;0.60;;
49722;SDS011;43484;43.608;1.458;2023-04-07T14:30:03;1.75;;;0.60;;
49722;SDS011;43484;43.608;1.458;2023-04-07T14:32:30;2.33;;;0.50;;
49722;SDS011;43484;43.608;1.458;2023-04-07T14:34:58;1.70;;;0.60;;
49722;SDS011;43484;43.608;1.458;2023-04-07T14:37:26;3.05;;;0.60;;
49722;SDS011;43484;43.608;1.458;2023-04-07T14:39:53;3.22;;;0.45;;
49722;SDS011;43484;43.608;1.458;2023-04-07T14:42:28;2.10;;;0.60;;
49722;SDS011;43484;43.608;1.458;2023-04-07T14:44:58;2.38;;;0.52;;
49722;SDS011;43484;43.608;1.458;2023-04-07T14:47:25;5.35;;;0.40;;
49722;SDS011;43484;43.608;1.458;2023-04-07T14:49:53;2.03;;;0.40;;
49722;SDS011;43484;43.608;1.458;2023-04-07T14:52:19;2.10;;;0.50;;
49722;SDS011;43484;43.608;1.458;2023-04-07T14:54:49;3.97;;;0.57;;
49722;SDS011;43484;43.608;1.458;2023-04-07T14:57:16;4.55;;;0.40;;
49722;SDS011;43484;43.608;1.458;2023-04-07T14:59:42;0.93;;;0.40;;
49722;SDS011;43484;43.608;1.458;2023-04-07T15:02:09;4.07;;;0.52;;
49722;SDS011;43484;43.608;1.458;2023-04-07T15:04:36;3.38;;;0.38;;
49722;SDS011;43484;43.608;1.458;2023-04-07T15:07:04;1.58;;;0.50;;
49722;SDS011;43484;43.608;1.458;2023-04-07T15:09:30;1.05;;;0.40;;
49722;SDS011;43484;43.608;1.458;2023-04-07T15:11:57;3.70;;;0.73;;
49722;SDS011;43484;43.608;1.458;2023-04-07T15:14:25;1.58;;;0.60;;
49722;SDS011;43484;43.608;1.458;2023-04-07T15:16:52;3.88;;;0.60;;